Terminal Aerodrome Forecast
Issued by NWS

Current Version | Previous Version | Text Only | Print | Product List | Glossary On
Versions: 1 2 3 4 5 6 7 8 9 10 11 12 13 14 15 16 17 18 19
000
FTUS46 KSTO 101156
TAFRDD
TAF
KRDD 101156Z 1012/1112 VRB05KT 4SM -RA BR OVC010
     FM102100 VRB05KT P6SM -SHRA OVC015
     FM110100 VRB05KT P6SM OVC050
     FM110900 VRB05KT P6SM SKC=

USA.gov is the U.S. government's official web portal to all federal, state and local government web resources and services.